Lunamar — 5BNV2 — position and weather

sailwx.info

Track history (hours):
 
Tides and Currents Weather Stations Pressure Air Temp Water Temp Dewpoint Dewpoint Depression Visibility Wind Speed Wind Dir Waves Ship Positions

Lunamar

Last reported at 2016-Jul-24 02:17 UTC. Time now 2016-Jul-26 02:37 UTC.
Position N 46°15' W 003°54'.

Length 90 m; draft 5.5 m.

Type: Cargo ship. MMSI: 212762000.

Date/timePositionNaut miles runAvg speedWind from/ knotsBaromVisibWave heightAir tempDewpointWater temp
2016-Jul-24 02:17N 46°15' W 003°54'18 6.3
2016-Jul-23 23:30N 46°30' W 004°06'78 7.0
2016-Jul-23 12:17N 47°41' W 004°55'7 7.4
2016-Jul-23 11:20N 47°47' W 005°00'52 6.7
2016-Jul-23 03:33N 48°39' W 005°14'6 6.2
2016-Jul-23 02:33N 48°43' W 005°08'84 7.4
2016-Jul-22 15:15N 49°39' W 003°32'7 8.7
2016-Jul-22 14:29N 49°43' W 003°24'9 9.3
2016-Jul-22 13:33N 49°48' W 003°14'1010.5
2016-Jul-22 12:34N 49°55' W 003°01'9 9.5
2016-Jul-22 11:33N 49°59' W 002°48'8 8.3
2016-Jul-22 10:34N 50°02' W 002°36'7 7.1
2016-Jul-22 09:33N 50°04' W 002°25'7 6.5
2016-Jul-22 08:32N 50°06' W 002°16'7 6.9
2016-Jul-22 07:31N 50°09' W 002°05'6811.2
2016-Jul-22 01:29N 50°27' W 000°23'910.2
2016-Jul-22 00:33N 50°30' W 000°09'9 8.9
2016-Jul-21 23:34N 50°32' E 000°05'8 7.8
2016-Jul-21 22:34N 50°34' E 000°16'40 9.2
2016-Jul-21 18:12N 50°55' E 001°10'710.9
2016-Jul-21 17:34N 50°60' E 001°19'10 9.9
2016-Jul-21 16:34N 51°06' E 001°31'8 8.4
2016-Jul-21 15:34N 51°11' E 001°42'8 7.6
2016-Jul-21 14:34N 51°17' E 001°49'8 7.6
2016-Jul-21 13:34N 51°24' E 001°54'9 8.6
2016-Jul-21 12:33N 51°31' E 002°02'11 9.9
2016-Jul-21 11:30N 51°39' E 002°13'1211.1
2016-Jul-21 10:26N 51°48' E 002°25'1011.4
2016-Jul-21 09:33N 51°55' E 002°36'1211.5
2016-Jul-21 08:32N 52°04' E 002°49'1210.9
2016-Jul-21 07:29N 52°13' E 003°01'29 9.2
2016-Jul-21 04:18N 52°37' E 003°29'23 8.5
2016-Jul-21 01:33N 52°54' E 003°54'1010.1
2016-Jul-21 00:33N 53°00' E 004°08'45 9.1
2016-Jul-20 19:32N 53°33' E 005°00'7 7.2
2016-Jul-20 18:33N 53°36' E 005°12'8 7.9
2016-Jul-20 17:34N 53°38' E 005°24'9 8.7
2016-Jul-20 16:34N 53°41' E 005°38'1010.5
2016-Jul-20 15:34N 53°45' E 005°54'1111.2
2016-Jul-20 14:33N 53°49' E 006°12'1111.1
2016-Jul-20 13:34N 53°51' E 006°30'1110.7
2016-Jul-20 12:34N 53°54' E 006°48'10 9.9
2016-Jul-20 11:34N 53°56' E 007°05'12 9.2
2016-Jul-20 10:14N 53°59' E 007°25'6 8.5
2016-Jul-20 09:33N 53°60' E 007°34'8 8.5
2016-Jul-20 08:33N 54°01' E 007°48'9 8.6
2016-Jul-20 07:34N 54°01' E 008°03'9 9.0
2016-Jul-20 06:34N 54°00' E 008°18'1211.7
2016-Jul-20 05:33N 53°57' E 008°38'1211.9
2016-Jul-20 04:33N 53°51' E 008°54'9 8.9
2016-Jul-20 03:33N 53°54' E 009°09'3 2.5
2016-Jul-20 02:33N 53°55' E 009°12'8 8.3
2016-Jul-20 01:33N 54°03' E 009°18'29 7.3
2016-Jul-19 21:34N 54°21' E 009°58'6 5.7
2016-Jul-19 20:32N 54°22' E 010°07'0 0.2
2016-Jul-19 18:33N 54°22' E 010°08'1 1.4
2016-Jul-19 17:33N 54°22' E 010°10'0 0.0
2016-Jul-19 16:21N 54°22' E 010°10'1 1.7
2016-Jul-19 15:34N 54°24' E 010°12'19 9.0
2016-Jul-19 13:24N 54°35' E 010°39'7 8.8
2016-Jul-19 12:34N 54°35' E 010°51'9 9.2
2016-Jul-19 11:34N 54°36' E 011°07'10 9.9
2016-Jul-19 10:34N 54°33' E 011°24'1010.1
2016-Jul-19 09:34N 54°30' E 011°40'10 9.7
2016-Jul-19 08:33N 54°27' E 011°56'9 8.9
2016-Jul-19 07:33N 54°30' E 012°11'68 9.6
2016-Jul-19 00:33N 55°02' E 013°54'10 9.9
2016-Jul-18 23:33N 55°07' E 014°09'1010.1
2016-Jul-18 22:33N 55°15' E 014°20'1010.1
2016-Jul-18 21:33N 55°23' E 014°31'10 9.7
2016-Jul-18 20:33N 55°29' E 014°43'10 9.8
2016-Jul-18 19:33N 55°34' E 014°58'10 9.7
2016-Jul-18 18:33N 55°39' E 015°13'  
Track history (hours):
 
Tides and Currents Weather Stations Pressure Air Temp Water Temp Dewpoint Dewpoint Depression Visibility Wind Speed Wind Dir Waves Ship Positions

Lunamar

Last reported at 2016-Jul-24 02:17 UTC. Time now 2016-Jul-26 02:37 UTC.
Position N 46°15' W 003°54'.

Length 90 m; draft 5.5 m.

Type: Cargo ship. MMSI: 212762000.

Date/timePositionNaut miles runAvg speedWind from/ knotsBaromVisibWave heightAir tempDewpointWater temp
2016-Jul-24 02:17N 46°15' W 003°54'18 6.3
2016-Jul-23 23:30N 46°30' W 004°06'78 7.0
2016-Jul-23 12:17N 47°41' W 004°55'7 7.4
2016-Jul-23 11:20N 47°47' W 005°00'52 6.7
2016-Jul-23 03:33N 48°39' W 005°14'6 6.2
2016-Jul-23 02:33N 48°43' W 005°08'84 7.4
2016-Jul-22 15:15N 49°39' W 003°32'7 8.7
2016-Jul-22 14:29N 49°43' W 003°24'9 9.3
2016-Jul-22 13:33N 49°48' W 003°14'1010.5
2016-Jul-22 12:34N 49°55' W 003°01'9 9.5
2016-Jul-22 11:33N 49°59' W 002°48'8 8.3
2016-Jul-22 10:34N 50°02' W 002°36'7 7.1
2016-Jul-22 09:33N 50°04' W 002°25'7 6.5
2016-Jul-22 08:32N 50°06' W 002°16'7 6.9
2016-Jul-22 07:31N 50°09' W 002°05'6811.2
2016-Jul-22 01:29N 50°27' W 000°23'910.2
2016-Jul-22 00:33N 50°30' W 000°09'9 8.9
2016-Jul-21 23:34N 50°32' E 000°05'8 7.8
2016-Jul-21 22:34N 50°34' E 000°16'40 9.2
2016-Jul-21 18:12N 50°55' E 001°10'710.9
2016-Jul-21 17:34N 50°60' E 001°19'10 9.9
2016-Jul-21 16:34N 51°06' E 001°31'8 8.4
2016-Jul-21 15:34N 51°11' E 001°42'8 7.6
2016-Jul-21 14:34N 51°17' E 001°49'8 7.6
2016-Jul-21 13:34N 51°24' E 001°54'9 8.6
2016-Jul-21 12:33N 51°31' E 002°02'11 9.9
2016-Jul-21 11:30N 51°39' E 002°13'1211.1
2016-Jul-21 10:26N 51°48' E 002°25'1011.4
2016-Jul-21 09:33N 51°55' E 002°36'1211.5
2016-Jul-21 08:32N 52°04' E 002°49'1210.9
2016-Jul-21 07:29N 52°13' E 003°01'29 9.2
2016-Jul-21 04:18N 52°37' E 003°29'23 8.5
2016-Jul-21 01:33N 52°54' E 003°54'1010.1
2016-Jul-21 00:33N 53°00' E 004°08'45 9.1
2016-Jul-20 19:32N 53°33' E 005°00'7 7.2
2016-Jul-20 18:33N 53°36' E 005°12'8 7.9
2016-Jul-20 17:34N 53°38' E 005°24'9 8.7
2016-Jul-20 16:34N 53°41' E 005°38'1010.5
2016-Jul-20 15:34N 53°45' E 005°54'1111.2
2016-Jul-20 14:33N 53°49' E 006°12'1111.1
2016-Jul-20 13:34N 53°51' E 006°30'1110.7
2016-Jul-20 12:34N 53°54' E 006°48'10 9.9
2016-Jul-20 11:34N 53°56' E 007°05'12 9.2
2016-Jul-20 10:14N 53°59' E 007°25'6 8.5
2016-Jul-20 09:33N 53°60' E 007°34'8 8.5
2016-Jul-20 08:33N 54°01' E 007°48'9 8.6
2016-Jul-20 07:34N 54°01' E 008°03'9 9.0
2016-Jul-20 06:34N 54°00' E 008°18'1211.7
2016-Jul-20 05:33N 53°57' E 008°38'1211.9
2016-Jul-20 04:33N 53°51' E 008°54'9 8.9
2016-Jul-20 03:33N 53°54' E 009°09'3 2.5
2016-Jul-20 02:33N 53°55' E 009°12'8 8.3
2016-Jul-20 01:33N 54°03' E 009°18'29 7.3
2016-Jul-19 21:34N 54°21' E 009°58'6 5.7
2016-Jul-19 20:32N 54°22' E 010°07'0 0.2
2016-Jul-19 18:33N 54°22' E 010°08'1 1.4
2016-Jul-19 17:33N 54°22' E 010°10'0 0.0
2016-Jul-19 16:21N 54°22' E 010°10'1 1.7
2016-Jul-19 15:34N 54°24' E 010°12'19 9.0
2016-Jul-19 13:24N 54°35' E 010°39'7 8.8
2016-Jul-19 12:34N 54°35' E 010°51'9 9.2
2016-Jul-19 11:34N 54°36' E 011°07'10 9.9
2016-Jul-19 10:34N 54°33' E 011°24'1010.1
2016-Jul-19 09:34N 54°30' E 011°40'10 9.7
2016-Jul-19 08:33N 54°27' E 011°56'9 8.9
2016-Jul-19 07:33N 54°30' E 012°11'68 9.6
2016-Jul-19 00:33N 55°02' E 013°54'10 9.9
2016-Jul-18 23:33N 55°07' E 014°09'1010.1
2016-Jul-18 22:33N 55°15' E 014°20'1010.1
2016-Jul-18 21:33N 55°23' E 014°31'10 9.7
2016-Jul-18 20:33N 55°29' E 014°43'10 9.8
2016-Jul-18 19:33N 55°34' E 014°58'10 9.7
2016-Jul-18 18:33N 55°39' E 015°13'  

Dump ship's entire track history